createdAt,value
2023-01-02T00:01:10.271Z,9.47
2023-01-02T00:03:37.367Z,9.03
2023-01-02T00:06:06.314Z,8.37
2023-01-02T00:08:33.611Z,8.33
2023-01-02T00:11:00.751Z,9.40
2023-01-02T00:13:27.746Z,8.30
2023-01-02T00:15:54.772Z,8.03
2023-01-02T00:18:21.847Z,8.30
2023-01-02T00:20:48.738Z,8.53
2023-01-02T00:23:15.663Z,7.97
2023-01-02T00:25:42.688Z,8.10
2023-01-02T00:28:09.575Z,8.60
2023-01-02T00:30:39.829Z,7.83
2023-01-02T00:33:07.466Z,8.00
2023-01-02T00:35:37.647Z,8.50
2023-01-02T00:38:05.453Z,9.10
2023-01-02T00:40:32.406Z,7.63
2023-01-02T00:42:59.523Z,7.70
2023-01-02T00:45:26.652Z,8.30
2023-01-02T00:47:54.856Z,7.30
2023-01-02T00:50:21.808Z,7.60
2023-01-02T00:52:48.800Z,8.43
2023-01-02T00:55:15.761Z,8.70
2023-01-02T00:57:42.642Z,7.97
2023-01-02T01:00:10.384Z,7.73
2023-01-02T01:02:37.447Z,7.20
2023-01-02T01:05:05.316Z,7.70
2023-01-02T01:07:32.198Z,7.90
2023-01-02T01:09:59.140Z,7.60
2023-01-02T01:12:26.049Z,8.30
2023-01-02T01:14:52.936Z,8.57
2023-01-02T01:17:20.197Z,8.03
2023-01-02T01:19:47.160Z,8.13
2023-01-02T01:22:14.117Z,8.37
2023-01-02T01:24:41.037Z,8.70
2023-01-02T01:27:07.973Z,8.57
2023-01-02T01:29:34.872Z,7.73
2023-01-02T01:32:01.801Z,8.47
2023-01-02T01:34:28.806Z,8.47
2023-01-02T01:36:55.696Z,9.23
2023-01-02T01:39:22.701Z,8.90
2023-01-02T01:41:49.684Z,8.40
2023-01-02T01:44:46.690Z,7.53
2023-01-02T01:47:23.013Z,8.13
2023-01-02T01:50:08.487Z,8.03
2023-01-02T01:52:41.639Z,8.27
2023-01-02T01:55:23.529Z,7.60
2023-01-02T01:58:02.505Z,8.80
2023-01-02T02:00:30.665Z,7.47
2023-01-02T02:03:06.733Z,8.03
2023-01-02T02:05:34.128Z,7.73
2023-01-02T02:08:51.409Z,7.30
2023-01-02T02:11:19.523Z,6.50
2023-01-02T02:13:47.435Z,6.40
2023-01-02T02:16:34.362Z,6.97
2023-01-02T02:19:43.749Z,6.80
2023-01-02T02:23:05.825Z,6.13
2023-01-02T02:26:18.782Z,6.53
2023-01-02T02:28:59.721Z,6.30
2023-01-02T02:31:44.930Z,6.83
2023-01-02T02:34:26.874Z,6.70
2023-01-02T02:37:58.262Z,6.27
2023-01-02T02:40:50.419Z,7.53
2023-01-02T02:44:08.336Z,5.90
2023-01-02T02:46:59.790Z,6.80
2023-01-02T02:49:42.392Z,6.13
2023-01-02T02:52:29.194Z,6.90
2023-01-02T02:55:07.804Z,6.70
2023-01-02T02:57:36.158Z,7.00
2023-01-02T03:00:10.940Z,7.50
2023-01-02T03:02:38.135Z,6.60
2023-01-02T03:05:10.507Z,6.40
2023-01-02T03:07:43.998Z,7.17
2023-01-02T03:10:23.921Z,7.43
2023-01-02T03:13:04.131Z,6.73
2023-01-02T03:15:48.918Z,6.27
2023-01-02T03:18:49.998Z,6.60
2023-01-02T03:21:31.162Z,7.17
2023-01-02T03:24:08.745Z,7.27
2023-01-02T03:26:38.969Z,6.67
2023-01-02T03:29:15.157Z,7.40
2023-01-02T03:31:48.729Z,7.67
2023-01-02T03:34:21.541Z,6.77
2023-01-02T03:36:55.172Z,6.37
2023-01-02T03:39:29.143Z,6.13
2023-01-02T03:41:59.126Z,6.40
2023-01-02T03:44:35.599Z,6.30
2023-01-02T03:47:16.959Z,6.30
2023-01-02T03:49:48.224Z,5.73
2023-01-02T03:52:15.777Z,5.80
2023-01-02T03:54:43.893Z,6.70
2023-01-02T03:57:31.174Z,5.40
2023-01-02T04:00:12.013Z,5.20
2023-01-02T04:02:56.914Z,5.80
2023-01-02T04:05:36.623Z,6.07
2023-01-02T04:08:25.082Z,4.73
2023-01-02T04:10:58.502Z,6.63
2023-01-02T04:13:42.224Z,5.47
2023-01-02T04:16:13.660Z,6.10
2023-01-02T04:18:48.017Z,5.73
2023-01-02T04:21:22.068Z,5.80
2023-01-02T04:23:59.931Z,6.20
2023-01-02T04:26:35.141Z,5.50
2023-01-02T04:29:02.592Z,6.50
2023-01-02T04:31:55.524Z,7.20
2023-01-02T04:34:23.930Z,6.23
2023-01-02T04:36:50.975Z,6.73
2023-01-02T04:39:20.420Z,6.67
2023-01-02T04:41:47.395Z,7.00
2023-01-02T04:44:14.331Z,6.67
2023-01-02T04:46:41.436Z,6.70
2023-01-02T04:49:10.294Z,5.60
2023-01-02T04:51:37.243Z,5.83
2023-01-02T04:54:04.432Z,6.83
2023-01-02T04:56:31.483Z,6.90
2023-01-02T04:58:58.540Z,6.43
2023-01-02T05:01:25.534Z,7.07
2023-01-02T05:03:52.867Z,6.17
2023-01-02T05:06:19.962Z,6.33
2023-01-02T05:08:47.089Z,6.53
2023-01-02T05:11:17.813Z,6.83
2023-01-02T05:13:45.240Z,6.10
2023-01-02T05:16:12.397Z,7.30
2023-01-02T05:18:39.598Z,6.60
2023-01-02T05:21:41.540Z,6.93
2023-01-02T05:24:08.450Z,6.63
2023-01-02T05:26:35.339Z,6.60
2023-01-02T05:29:02.328Z,6.87
2023-01-02T05:31:29.755Z,7.27
2023-01-02T05:33:59.251Z,6.70
2023-01-02T05:36:27.383Z,6.90
2023-01-02T05:38:54.624Z,6.87
2023-01-02T05:41:22.851Z,6.10
2023-01-02T05:43:49.835Z,6.30
2023-01-02T05:46:19.608Z,6.37
2023-01-02T05:48:47.465Z,7.70
2023-01-02T05:51:17.149Z,5.97
2023-01-02T05:53:45.182Z,7.80
2023-01-02T05:56:17.903Z,7.57
2023-01-02T05:58:47.794Z,7.07
2023-01-02T06:01:21.717Z,6.57
2023-01-02T06:03:55.285Z,5.90
2023-01-02T06:06:26.594Z,7.10
2023-01-02T06:08:53.526Z,6.37
2023-01-02T06:11:20.597Z,6.43
2023-01-02T06:13:47.570Z,6.50
2023-01-02T06:16:14.654Z,5.90
2023-01-02T06:18:41.791Z,5.83
2023-01-02T06:21:14.873Z,6.33
2023-01-02T06:23:42.557Z,5.30
2023-01-02T06:26:14.919Z,6.10
2023-01-02T06:28:42.632Z,7.00
2023-01-02T06:31:18.099Z,6.33
2023-01-02T06:33:45.405Z,6.70
2023-01-02T06:36:16.850Z,7.87
2023-01-02T06:38:45.326Z,7.00
2023-01-02T06:41:13.074Z,7.40
2023-01-02T06:43:48.421Z,7.40
2023-01-02T06:46:18.682Z,7.47
2023-01-02T06:48:46.129Z,7.57
2023-01-02T06:51:22.477Z,7.10
2023-01-02T06:53:50.516Z,7.53
2023-01-02T06:56:19.512Z,7.27
2023-01-02T06:58:46.873Z,6.97
2023-01-02T07:01:20.801Z,6.90
2023-01-02T07:03:48.056Z,7.63
2023-01-02T07:06:18.501Z,7.20
2023-01-02T07:08:45.958Z,6.70
2023-01-02T07:11:15.439Z,8.23
2023-01-02T07:13:44.001Z,7.57
2023-01-02T07:16:14.976Z,7.57
2023-01-02T07:18:42.175Z,6.77
2023-01-02T07:21:11.492Z,7.30
2023-01-02T07:23:38.708Z,8.07
2023-01-02T07:26:07.266Z,8.20
2023-01-02T07:28:35.571Z,7.97
2023-01-02T07:31:06.186Z,8.80
2023-01-02T07:33:33.646Z,7.70
2023-01-02T07:36:03.945Z,9.00
2023-01-02T07:38:31.595Z,8.30
2023-01-02T07:40:58.692Z,9.63
2023-01-02T07:43:26.697Z,8.10
2023-01-02T07:45:53.671Z,8.73
2023-01-02T07:48:20.670Z,9.10
2023-01-02T07:50:47.670Z,8.53
2023-01-02T07:53:14.703Z,9.70
2023-01-02T07:55:41.589Z,9.20
2023-01-02T07:58:08.514Z,9.00
2023-01-02T08:00:35.573Z,9.67
2023-01-02T08:03:02.539Z,10.97
2023-01-02T08:05:29.465Z,10.40
2023-01-02T08:07:56.619Z,10.83
2023-01-02T08:10:23.636Z,13.83
2023-01-02T08:12:50.606Z,11.80
2023-01-02T08:15:17.525Z,10.80
2023-01-02T08:17:44.546Z,10.70
2023-01-02T08:20:11.983Z,10.03
2023-01-02T08:22:38.902Z,9.60
2023-01-02T08:25:07.191Z,8.93
2023-01-02T08:27:34.216Z,8.40
2023-01-02T08:30:01.318Z,9.30
2023-01-02T08:32:28.387Z,9.50
2023-01-02T08:34:55.424Z,11.30
2023-01-02T08:37:22.381Z,10.60
2023-01-02T08:39:49.242Z,11.10
2023-01-02T08:42:16.205Z,12.30
2023-01-02T08:44:43.535Z,12.10
2023-01-02T08:47:10.675Z,12.00
2023-01-02T08:49:37.661Z,12.67
2023-01-02T08:52:04.929Z,11.60
2023-01-02T08:54:32.126Z,12.43
2023-01-02T08:56:59.069Z,17.20
2023-01-02T08:59:26.501Z,15.70
2023-01-02T09:01:54.538Z,16.07
2023-01-02T09:04:21.719Z,12.70
2023-01-02T09:06:48.992Z,14.87
2023-01-02T09:09:17.302Z,14.60
2023-01-02T09:11:50.927Z,14.13
2023-01-02T09:14:21.632Z,13.30
2023-01-02T09:16:50.209Z,13.00
2023-01-02T09:19:17.487Z,11.33
2023-01-02T09:21:44.577Z,12.50
2023-01-02T09:24:11.826Z,11.83
2023-01-02T09:26:41.644Z,12.60
2023-01-02T09:29:11.124Z,12.57
2023-01-02T09:31:39.115Z,11.87
2023-01-02T09:34:06.173Z,13.00
2023-01-02T09:36:33.464Z,13.40
2023-01-02T09:39:02.084Z,13.53
2023-01-02T09:41:49.263Z,13.07
2023-01-02T09:44:31.002Z,12.70
2023-01-02T09:47:05.227Z,11.43
2023-01-02T09:49:44.755Z,12.30
2023-01-02T09:52:28.490Z,12.13
2023-01-02T09:54:55.429Z,12.00
2023-01-02T09:57:28.298Z,13.30
2023-01-02T10:00:10.012Z,10.50
2023-01-02T10:03:11.279Z,11.00
2023-01-02T10:05:41.308Z,17.40
2023-01-02T10:08:31.727Z,15.10
2023-01-02T10:11:35.427Z,14.07
2023-01-02T10:14:18.900Z,13.97
2023-01-02T10:16:51.583Z,14.23
2023-01-02T10:19:50.417Z,13.27
2023-01-02T10:22:47.797Z,12.80
2023-01-02T10:25:19.660Z,12.47
2023-01-02T10:27:52.749Z,12.27
2023-01-02T10:30:25.639Z,12.77
2023-01-02T10:33:16.071Z,12.27
2023-01-02T10:35:53.300Z,10.70
2023-01-02T10:38:20.707Z,11.47
2023-01-02T10:40:51.021Z,11.63
2023-01-02T10:43:18.759Z,11.10
2023-01-02T10:45:45.800Z,12.20
2023-01-02T10:48:13.847Z,11.77
2023-01-02T10:50:48.835Z,10.67
2023-01-02T10:53:31.908Z,11.03
2023-01-02T10:56:07.704Z,12.03
2023-01-02T10:58:35.631Z,11.23
2023-01-02T11:01:18.171Z,11.80
2023-01-02T11:03:47.373Z,11.60
2023-01-02T11:06:31.114Z,12.80
2023-01-02T11:09:30.955Z,12.90
2023-01-02T11:12:07.879Z,15.30
2023-01-02T11:14:37.177Z,11.43
2023-01-02T11:17:22.153Z,12.50
2023-01-02T11:19:52.789Z,12.90
2023-01-02T11:22:22.960Z,11.50
2023-01-02T11:25:02.963Z,11.70
2023-01-02T11:27:43.791Z,11.80
2023-01-02T11:30:34.474Z,11.47
2023-01-02T11:33:19.571Z,10.20
2023-01-02T11:36:16.203Z,13.57
2023-01-02T11:38:54.770Z,12.03
2023-01-02T11:41:49.105Z,11.80
2023-01-02T11:44:29.150Z,10.77
2023-01-02T11:46:56.986Z,13.37
2023-01-02T11:49:28.040Z,13.80
2023-01-02T11:52:05.189Z,12.17
2023-01-02T11:54:58.063Z,13.00
2023-01-02T11:58:20.930Z,13.40
2023-01-02T12:00:52.998Z,12.27
2023-01-02T12:03:24.334Z,12.37
2023-01-02T12:06:14.274Z,11.60
2023-01-02T12:09:15.318Z,11.30
2023-01-02T12:12:45.699Z,12.80
2023-01-02T12:15:55.659Z,12.20
2023-01-02T12:19:35.689Z,10.57
2023-01-02T12:22:43.475Z,9.90
2023-01-02T12:25:47.582Z,11.47
2023-01-02T12:28:52.927Z,10.73
2023-01-02T12:31:32.161Z,10.60
2023-01-02T12:34:36.980Z,11.47
2023-01-02T12:37:24.928Z,11.93
2023-01-02T12:40:26.586Z,12.53
2023-01-02T12:43:50.823Z,10.37
2023-01-02T12:47:00.315Z,10.93
2023-01-02T12:49:48.523Z,11.67
2023-01-02T12:53:05.993Z,12.90
2023-01-02T12:56:17.614Z,13.27
2023-01-02T12:58:56.820Z,13.00
2023-01-02T13:02:02.600Z,12.03
2023-01-02T13:04:48.819Z,11.33
2023-01-02T13:07:29.964Z,11.80
2023-01-02T13:10:01.999Z,12.77
2023-01-02T13:12:32.032Z,11.90
2023-01-02T13:15:16.485Z,12.57
2023-01-02T13:18:03.332Z,13.37
2023-01-02T13:21:21.230Z,15.50
2023-01-02T13:23:48.410Z,16.10
2023-01-02T13:26:19.409Z,18.30
2023-01-02T13:29:03.892Z,19.77
2023-01-02T13:31:46.603Z,21.07
2023-01-02T13:34:28.562Z,23.27
2023-01-02T13:37:14.010Z,24.10
2023-01-02T13:39:40.827Z,23.20
2023-01-02T13:42:49.895Z,25.07
2023-01-02T13:45:37.247Z,23.07
2023-01-02T13:48:13.494Z,21.03
2023-01-02T13:50:40.816Z,20.80
2023-01-02T13:53:10.451Z,21.57
2023-01-02T13:55:40.293Z,21.10
2023-01-02T13:58:13.430Z,22.33
2023-01-02T14:00:53.852Z,21.90
2023-01-02T14:03:34.775Z,21.57
2023-01-02T14:06:06.296Z,22.43
2023-01-02T14:09:04.143Z,23.60
2023-01-02T14:11:56.070Z,23.00
2023-01-02T14:14:38.461Z,23.97
2023-01-02T14:17:34.726Z,23.40
2023-01-02T14:20:26.894Z,24.80
2023-01-02T14:23:08.557Z,25.20
2023-01-02T14:25:48.150Z,25.13
2023-01-02T14:28:25.252Z,25.23
2023-01-02T14:30:53.007Z,23.23
2023-01-02T14:33:38.094Z,18.27
2023-01-02T14:36:12.611Z,19.40
2023-01-02T14:38:54.024Z,18.00
2023-01-02T14:42:43.689Z,16.03
2023-01-02T14:45:18.917Z,14.23
2023-01-02T14:48:06.736Z,14.83
2023-01-02T14:50:35.359Z,13.60
2023-01-02T14:53:02.246Z,15.20
2023-01-02T14:55:39.501Z,13.30
2023-01-02T14:58:25.508Z,14.40
2023-01-02T15:00:59.087Z,13.93
2023-01-02T15:03:46.355Z,14.57
2023-01-02T15:06:32.154Z,14.37
2023-01-02T15:09:22.748Z,16.20
2023-01-02T15:12:33.355Z,14.97
2023-01-02T15:15:00.320Z,13.90
2023-01-02T15:17:27.413Z,14.93
2023-01-02T15:19:54.378Z,15.20
2023-01-02T15:22:28.321Z,14.40
2023-01-02T15:24:55.265Z,13.30
2023-01-02T15:27:32.432Z,14.40
2023-01-02T15:30:27.179Z,13.43
2023-01-02T15:32:54.093Z,14.17
2023-01-02T15:35:30.251Z,13.97
2023-01-02T15:37:57.869Z,14.57
2023-01-02T15:40:32.031Z,15.33
2023-01-02T15:43:22.085Z,16.53
2023-01-02T15:45:52.059Z,15.47
2023-01-02T15:48:22.143Z,15.23
2023-01-02T15:50:52.712Z,15.10
2023-01-02T15:53:27.456Z,13.63
2023-01-02T15:55:54.983Z,14.50
2023-01-02T15:58:25.611Z,14.67
2023-01-02T16:01:25.198Z,16.30
2023-01-02T16:04:01.793Z,15.10
2023-01-02T16:06:44.992Z,15.30
2023-01-02T16:09:26.874Z,16.27
2023-01-02T16:12:00.255Z,14.97
2023-01-02T16:14:53.196Z,15.47
2023-01-02T16:17:40.232Z,15.33
2023-01-02T16:20:18.046Z,15.73
2023-01-02T16:22:48.503Z,15.23
2023-01-02T16:25:33.169Z,22.40
2023-01-02T16:28:36.066Z,16.60
2023-01-02T16:31:12.342Z,16.87
2023-01-02T16:33:41.810Z,16.83
2023-01-02T16:36:24.545Z,14.70
2023-01-02T16:38:59.480Z,14.00
2023-01-02T16:41:38.251Z,13.80
2023-01-02T16:44:12.471Z,14.77
2023-01-02T16:46:50.097Z,14.00
2023-01-02T16:49:21.923Z,13.13
2023-01-02T16:51:51.729Z,14.03
2023-01-02T16:54:19.621Z,13.80
2023-01-02T16:56:47.963Z,13.40
2023-01-02T16:59:14.868Z,14.13
2023-01-02T17:01:41.908Z,13.97
2023-01-02T17:04:12.502Z,13.27
2023-01-02T17:06:39.537Z,14.90
2023-01-02T17:09:06.417Z,14.00
2023-01-02T17:11:33.359Z,13.87
2023-01-02T17:14:01.266Z,12.10
2023-01-02T17:16:28.339Z,13.27
2023-01-02T17:18:55.366Z,13.33
2023-01-02T17:21:25.169Z,15.53
2023-01-02T17:23:56.173Z,13.87
2023-01-02T17:26:23.133Z,14.20
2023-01-02T17:28:50.008Z,14.93
2023-01-02T17:31:21.178Z,15.63
2023-01-02T17:33:50.955Z,15.03
2023-01-02T17:36:18.174Z,14.17
2023-01-02T17:38:45.032Z,14.40
2023-01-02T17:41:11.891Z,13.73
2023-01-02T17:43:38.760Z,15.00
2023-01-02T17:47:00.864Z,20.17
2023-01-02T17:49:13.357Z,14.67
2023-01-02T17:51:40.236Z,14.63
2023-01-02T17:54:07.128Z,14.70
2023-01-02T17:56:34.155Z,15.50
2023-01-02T17:59:01.058Z,16.67
2023-01-02T18:01:28.114Z,14.17
2023-01-02T18:03:55.160Z,15.93
2023-01-02T18:06:22.099Z,19.57
2023-01-02T18:08:51.088Z,18.00
2023-01-02T18:11:18.079Z,17.40
2023-01-02T18:13:52.141Z,17.97
2023-01-02T18:16:29.363Z,16.63
2023-01-02T18:18:56.323Z,18.40
2023-01-02T18:21:28.856Z,18.83
2023-01-02T18:24:02.463Z,17.40
2023-01-02T18:26:31.546Z,17.07
2023-01-02T18:29:07.516Z,19.40
2023-01-02T18:31:43.474Z,22.50
2023-01-02T18:37:29.344Z,31.87
2023-01-02T18:39:58.169Z,32.83
2023-01-02T18:42:28.824Z,33.43
2023-01-02T18:44:59.560Z,36.10
2023-01-02T18:47:32.107Z,44.73
2023-01-02T18:50:21.593Z,44.33
2023-01-02T18:52:50.740Z,43.23
2023-01-02T18:55:25.738Z,40.27
2023-01-02T18:58:19.325Z,44.63
2023-01-02T19:00:46.430Z,44.00
2023-01-02T19:03:27.391Z,46.00
2023-01-02T19:05:55.033Z,45.70
2023-01-02T19:08:37.424Z,48.60
2023-01-02T19:11:47.732Z,48.03
2023-01-02T19:14:20.305Z,48.37
2023-01-02T19:17:21.487Z,48.03
2023-01-02T19:19:49.004Z,47.10
2023-01-02T19:22:24.790Z,47.20
2023-01-02T19:25:19.619Z,46.27
2023-01-02T19:27:48.091Z,46.13
2023-01-02T19:30:36.013Z,46.92
2023-01-02T19:33:33.271Z,48.87
2023-01-02T19:36:03.214Z,57.37
2023-01-02T19:38:31.945Z,56.97
2023-01-02T19:40:58.919Z,58.03
2023-01-02T19:43:25.944Z,57.43
2023-01-02T19:45:53.263Z,60.43
2023-01-02T19:48:20.241Z,66.53
2023-01-02T19:50:47.267Z,64.30
2023-01-02T19:53:14.225Z,63.20
2023-01-02T19:55:41.164Z,56.60
2023-01-02T19:58:08.163Z,57.40
2023-01-02T20:00:35.063Z,59.10
2023-01-02T20:03:02.093Z,63.27
2023-01-02T20:05:29.199Z,66.50
2023-01-02T20:07:59.262Z,67.07
2023-01-02T20:10:26.482Z,66.33
2023-01-02T20:12:53.572Z,63.20
2023-01-02T20:15:26.750Z,64.30
2023-01-02T20:17:54.948Z,62.00
2023-01-02T20:20:25.965Z,61.53
2023-01-02T20:22:57.121Z,59.90
2023-01-02T20:25:26.393Z,61.93
2023-01-02T20:27:54.842Z,58.67
2023-01-02T20:30:24.685Z,63.70
2023-01-02T20:32:55.674Z,65.37
2023-01-02T20:35:22.876Z,65.37
2023-01-02T20:37:49.847Z,61.23
2023-01-02T20:40:16.921Z,60.83
2023-01-02T20:42:43.879Z,56.67
2023-01-02T20:45:11.632Z,56.67
2023-01-02T20:47:38.659Z,58.17
2023-01-02T20:50:06.244Z,57.30
2023-01-02T20:52:33.217Z,60.27
2023-01-02T20:55:00.383Z,57.50
2023-01-02T20:57:27.520Z,57.03
2023-01-02T20:59:54.559Z,55.67
2023-01-02T21:02:21.608Z,54.40
2023-01-02T21:04:48.726Z,54.73
2023-01-02T21:07:16.040Z,54.27
2023-01-02T21:09:42.957Z,58.40
2023-01-02T21:12:30.670Z,55.70
2023-01-02T21:14:58.177Z,53.70
2023-01-02T21:17:25.129Z,53.90
2023-01-02T21:19:52.219Z,53.13
2023-01-02T21:22:19.159Z,51.10
2023-01-02T21:24:46.011Z,51.70
2023-01-02T21:27:13.511Z,53.33
2023-01-02T21:29:41.056Z,54.53
2023-01-02T21:32:08.212Z,51.73
2023-01-02T21:34:35.216Z,49.23
2023-01-02T21:37:02.272Z,48.63
2023-01-02T21:39:29.235Z,49.67
2023-01-02T21:42:14.480Z,50.73
2023-01-02T21:44:41.529Z,48.53
2023-01-02T21:47:08.633Z,48.57
2023-01-02T21:49:35.805Z,48.40
2023-01-02T21:52:02.829Z,47.13
2023-01-02T21:54:30.161Z,47.70
2023-01-02T21:56:57.657Z,50.37
2023-01-02T21:59:25.686Z,45.87
2023-01-02T22:01:53.386Z,48.60
2023-01-02T22:04:21.775Z,49.10
2023-01-02T22:07:30.039Z,45.80
2023-01-02T22:09:37.679Z,45.50
2023-01-02T22:12:07.070Z,47.13
2023-01-02T22:14:38.145Z,45.73
2023-01-02T22:17:10.565Z,49.23
2023-01-02T22:19:38.301Z,48.17
2023-01-02T22:22:06.168Z,48.80
2023-01-02T22:24:36.607Z,48.07
2023-01-02T22:27:12.769Z,49.70
2023-01-02T22:30:18.352Z,46.07
2023-01-02T22:32:27.638Z,46.47
2023-01-02T22:34:55.170Z,47.27
2023-01-02T22:37:23.101Z,44.60
2023-01-02T22:39:50.312Z,42.37
2023-01-02T22:45:33.361Z,43.67
2023-01-02T22:48:05.848Z,44.60
2023-01-02T22:50:43.824Z,41.73
2023-01-02T22:53:34.167Z,42.23
2023-01-02T22:56:04.059Z,41.67
2023-01-02T22:58:30.944Z,39.90
2023-01-02T23:01:10.210Z,41.23
2023-01-02T23:03:40.821Z,39.80
2023-01-02T23:06:08.070Z,43.10
2023-01-02T23:08:35.289Z,38.80
2023-01-02T23:11:02.880Z,42.53
2023-01-02T23:13:29.925Z,42.37
2023-01-02T23:16:15.171Z,41.43
2023-01-02T23:19:01.203Z,40.67
2023-01-02T23:21:31.405Z,37.00
2023-01-02T23:23:58.707Z,33.60
2023-01-02T23:26:30.455Z,36.37
2023-01-02T23:29:07.118Z,35.13
2023-01-02T23:31:38.683Z,35.77
2023-01-02T23:34:06.274Z,39.00
2023-01-02T23:36:33.564Z,39.47
2023-01-02T23:39:00.857Z,32.67
2023-01-02T23:41:27.887Z,17.00
2023-01-02T23:43:54.749Z,14.83
2023-01-02T23:46:21.914Z,14.80
2023-01-02T23:48:48.926Z,16.50
2023-01-02T23:51:16.222Z,18.57
2023-01-02T23:53:43.173Z,20.50
2023-01-02T23:56:22.161Z,23.73
2023-01-02T23:58:52.209Z,27.20
